ADDS METAR Data INFO
IDs: Format: Raw Decoded Include TAF

Data at: 0839 UTC 21 Oct 2017

KFIT 210752Z AUTO 33004KT 10SM CLR 09/04 A3023 RMK AO2 SLP235 T00940044
KFIT 210652Z AUTO 30005KT 10SM CLR 08/05 A3022 RMK AO2 SLP233 T00830050
KFIT 210552Z AUTO 00000KT 10SM CLR 08/06 A3021 RMK AO2 SLP231 T00830056 10161 20078 51016
KFIT 210452Z AUTO 00000KT 10SM CLR 10/06 A3020 RMK AO2 SLP227 T01000056 402280083
KFIT 210352Z AUTO 31003KT 10SM CLR 10/06 A3018 RMK AO2 SLP221 T01000056
KFIT 210252Z AUTO 00000KT 10SM CLR 11/05 A3016 RMK AO2 SLP215 T01060050 53020
KFIT 210152Z AUTO 00000KT 10SM CLR 13/05 A3014 RMK AO2 SLP207 T01280050
KFIT 210052Z AUTO 34005KT 10SM CLR 15/04 A3012 RMK AO2 SLP199 T01500039
KFIT 202352Z AUTO 29008KT 10SM CLR 14/04 A3010 RMK AO2 SLP195 T01440044 10228 20139 53019
KFIT 202252Z AUTO 33005KT 10SM CLR 18/03 A3008 RMK AO2 SLP187 T01780028
KFIT 202152Z AUTO 33008KT 10SM CLR 19/02 A3006 RMK AO2 SLP180 T01940022
KFIT 202052Z AUTO 33010KT 10SM CLR 22/01 A3005 RMK AO2 PK WND 34026/2003 SLP175 T02170011 53006
KFIT 201952Z AUTO 31012KT 10SM CLR 22/02 A3004 RMK AO2 SLP171 T02220017
KFIT 201852Z AUTO 32011G18KT 10SM CLR 22/03 A3003 RMK AO2 SLP167 T02220028
KFIT 201752Z AUTO 30016G20KT 10SM CLR 22/03 A3003 RMK AO2 SLP168 T02170033 10217 20117 58017
KFIT 201652Z AUTO 31011G18KT 10SM CLR 21/03 A3005 RMK AO2 SLP177 T02060033
KFIT 201552Z AUTO 32010KT 10SM CLR 19/04 A3007 RMK AO2 SLP183 T01940044
KFIT 201452Z AUTO 32006G19KT 10SM CLR 18/04 A3008 RMK AO2 SLP185 T01830044 50007
KFIT 201352Z AUTO 33010KT 10SM CLR 17/07 A3009 RMK AO2 SLP189 T01720067
KFIT 201252Z AUTO VRB03KT 10SM CLR 16/08 A3008 RMK AO2 SLP187 T01560083
KFIT 201152Z AUTO 00000KT 9SM CLR 12/09 A3006 RMK AO2 SLP180 T01170089 10183 20094 53018
KFIT 201052Z AUTO 28005KT 10SM CLR 10/08 A3003 RMK AO2 SLP170 T01000078
KFIT 200952Z AUTO 26003KT 10SM CLR 14/09 A3001 RMK AO2 SLP162 T01440089
KFIT 200852Z AUTO 27004KT 10SM CLR 16/09 A3001 RMK AO2 SLP160 T01610089 51011
KFIT 200752Z AUTO 26004KT 10SM CLR 17/09 A2999 RMK AO2 SLP156 T01670089
KFIT 200652Z AUTO VRB03KT 10SM CLR 17/08 A2999 RMK AO2 SLP153 T01720083
KFIT 200552Z AUTO 23009G17KT 10SM CLR 18/08 A2997 RMK AO2 SLP148 T01830083 10189 20172 58004
KFIT 200452Z AUTO 26007G20KT 230V290 10SM CLR 18/08 A2998 RMK AO2 SLP151 T01830078 402440044
KFIT 200352Z AUTO 26010G15KT 10SM CLR 18/08 A2998 RMK AO2 SLP151 T01780078
KFIT 200252Z AUTO 26008KT 230V300 10SM CLR 18/08 A2998 RMK AO2 SLP154 T01780083 58001
KFIT 200152Z AUTO 26010G18KT 10SM CLR 17/09 A3000 RMK AO2 SLP160 T01720089
KFIT 200052Z AUTO 23007G15KT 200V260 10SM CLR 18/08 A3000 RMK AO2 SLP161 T01780078
KFIT 192352Z AUTO 21010G16KT 10SM CLR 18/07 A2999 RMK AO2 SLP156 T01830067 10244 20178 58005
KFIT 192252Z AUTO 17003KT 10SM CLR 19/06 A3000 RMK AO2 SLP159 T01890061
KFIT 192152Z AUTO 19005KT 10SM CLR 20/07 A3000 RMK AO2 SLP159 T02000067
KFIT 192052Z AUTO 19010G16KT 10SM CLR 22/06 A3000 RMK AO2 SLP161 T02220061 58028